Time;durP1;ratioP1;P1;durP2;ratioP2;P2;SDS_P1;SDS_P2;PMS_P1;PMS_P2;Temp;Humidity;BMP_temperature;BMP_pressure;BME280_temperature;BME280_humidity;BME280_pressure;Samples;Min_cycle;Max_cycle;Signal;HPM_P1;HPM_P2
2022/06/18 00:02:30;;;;;;;5.85;2.78;;;21.70;99.90;;;;;;5092838;28;20481;-89
2022/06/18 00:04:59;;;;;;;11.57;2.80;;;21.20;99.90;;;;;;5077879;28;20073;-89
2022/06/18 00:07:32;;;;;;;4.32;2.65;;;21.50;99.90;;;;;;5099004;28;20043;-88
2022/06/18 00:10:06;;;;;;;7.13;3.60;;;21.50;99.90;;;;;;5094031;28;20524;-88
2022/06/18 00:15:33;;;;;;;5.63;3.17;;;21.40;99.90;;;;;;5095027;28;20047;-89
2022/06/18 00:18:10;;;;;;;;;;;;;;;;;;;;;
2022/06/18 00:20:54;;;;;;;7.22;3.47;;;21.40;99.90;;;;;;5098817;28;20044;-90
2022/06/18 00:23:43;;;;;;;9.05;3.42;;;21.10;99.90;;;;;;5092115;28;20044;-89
2022/06/18 00:26:35;;;;;;;;;;;;;;;;;;;;;
2022/06/18 00:29:49;;;;;;;8.73;3.97;;;20.30;99.90;;;;;;5110664;28;20077;-89
2022/06/18 00:32:16;;;;;;;7.13;3.55;;;21.30;99.90;;;;;;5091771;28;20079;-88
2022/06/18 00:34:48;;;;;;;11.18;4.10;;;20.70;99.90;;;;;;5090005;28;20044;-89
2022/06/18 00:37:22;;;;;;;8.77;3.75;;;21.20;99.90;;;;;;5091406;28;20054;-89
2022/06/18 00:40:23;;;;;;;10.80;4.00;;;20.60;99.90;;;;;;5090973;28;20400;-88
2022/06/18 00:43:00;;;;;;;7.18;3.70;;;20.50;99.90;;;;;;5090058;28;20059;-89
2022/06/18 00:45:33;;;;;;;10.32;3.83;;;20.50;99.90;;;;;;5094364;28;20462;-89
2022/06/18 00:48:41;;;;;;;9.10;4.13;;;20.40;99.90;;;;;;5108732;27;20044;-90
2022/06/18 00:51:50;;;;;;;;;;;;;;;;;;;;;
2022/06/18 00:54:34;;;;;;;10.88;4.38;;;20.20;99.90;;;;;;5115413;27;20043;-89
2022/06/18 00:57:35;;;;;;;9.43;3.85;;;19.50;99.90;;;;;;5099106;27;20198;-90
2022/06/18 01:00:07;;;;;;;13.80;4.20;;;20.10;99.90;;;;;;5101324;27;20117;-91
2022/06/18 01:02:43;;;;;;;11.15;4.30;;;20.40;99.90;;;;;;5108206;27;20056;-89
2022/06/18 01:05:26;;;;;;;11.05;4.35;;;20.00;99.90;;;;;;5124087;27;20039;-89
2022/06/18 01:08:00;;;;;;;13.63;4.57;;;20.00;99.90;;;;;;5121505;27;20096;-89
2022/06/18 01:10:44;;;;;;;7.78;4.40;;;19.90;99.90;;;;;;5092585;27;20050;-88
2022/06/18 01:13:17;;;;;;;10.68;4.20;;;19.80;99.90;;;;;;5112708;27;20096;-90
2022/06/18 01:15:47;;;;;;;7.93;4.15;;;19.60;99.90;;;;;;5078017;27;20039;-91
2022/06/18 01:18:34;;;;;;;;;;;;;;;;;;;;;
2022/06/18 01:21:31;;;;;;;8.20;3.95;;;19.70;99.90;;;;;;5098414;27;20079;-88
2022/06/18 01:24:38;;;;;;;7.53;4.55;;;19.60;99.90;;;;;;5090942;27;20139;-90
2022/06/18 01:27:31;;;;;;;10.57;4.47;;;19.60;99.90;;;;;;5088660;27;20844;-90
2022/06/18 01:33:14;;;;;;;10.35;4.38;;;19.50;99.90;;;;;;5099041;27;20106;-89
2022/06/18 01:35:56;;;;;;;;;;;;;;;;;;;;;
2022/06/18 01:38:43;;;;;;;;;;;;;;;;;;;;;
2022/06/18 01:44:44;;;;;;;9.57;4.35;;;18.70;99.90;;;;;;5118115;27;20063;-89
2022/06/18 01:47:50;;;;;;;12.25;4.80;;;19.20;99.90;;;;;;5119677;27;20048;-89
2022/06/18 01:50:44;;;;;;;9.77;4.97;;;19.10;99.90;;;;;;5084843;27;20065;-88
2022/06/18 01:53:28;;;;;;;9.32;4.35;;;19.20;99.90;;;;;;5119591;27;20062;-88
2022/06/18 01:56:07;;;;;;;9.40;5.30;;;19.10;99.90;;;;;;5097628;27;20046;-88
2022/06/18 01:59:11;;;;;;;13.05;5.47;;;19.10;99.90;;;;;;5095779;27;20039;-90
2022/06/18 02:02:04;;;;;;;11.90;4.80;;;19.00;99.90;;;;;;5083686;27;20115;-89
2022/06/18 02:04:37;;;;;;;10.90;5.10;;;19.00;99.90;;;;;;5102516;27;20130;-88
2022/06/18 02:07:20;;;;;;;13.20;5.50;;;19.00;99.90;;;;;;5104295;27;20039;-87
2022/06/18 02:09:59;;;;;;;13.43;5.45;;;18.90;99.90;;;;;;5115838;27;20479;-88
2022/06/18 02:12:42;;;;;;;;;;;;;;;;;;;;;
2022/06/18 02:15:30;;;;;;;14.00;5.70;;;18.90;99.90;;;;;;5111734;27;20050;-89
2022/06/18 02:18:06;;;;;;;11.07;5.55;;;18.90;99.90;;;;;;5092400;27;20104;-88
2022/06/18 02:20:47;;;;;;;12.20;5.60;;;18.80;99.90;;;;;;5096725;27;20051;-88
2022/06/18 02:26:38;;;;;;;13.20;6.15;;;18.80;99.90;;;;;;5096667;27;20078;-89
2022/06/18 02:29:36;;;;;;;;;;;;;;;;;;;;;
2022/06/18 02:32:34;;;;;;;13.85;5.60;;;18.70;99.90;;;;;;5097327;27;20051;-88
2022/06/18 02:35:15;;;;;;;14.85;5.60;;;18.70;99.90;;;;;;5104341;27;20055;-89
2022/06/18 02:37:46;;;;;;;10.93;5.40;;;18.70;99.90;;;;;;5111372;27;20035;-88
2022/06/18 02:40:31;;;;;;;11.77;5.72;;;18.20;99.90;;;;;;5077455;27;20097;-89
2022/06/18 02:43:10;;;;;;;;;;;;;;;;;;;;;
2022/06/18 02:48:44;;;;;;;11.00;5.70;;;17.90;99.90;;;;;;5099381;28;20079;-88
2022/06/18 02:51:18;;;;;;;11.70;5.30;;;18.60;99.90;;;;;;5100704;28;20056;-88
2022/06/18 02:53:46;;;;;;;12.85;5.50;;;18.60;99.90;;;;;;5118018;28;20051;-89
2022/06/18 02:56:22;;;;;;;12.32;5.50;;;18.60;99.90;;;;;;5092560;28;20047;-86
2022/06/18 02:59:14;;;;;;;;;;;;;;;;;;;;;
2022/06/18 03:01:57;;;;;;;10.57;5.32;;;18.60;99.90;;;;;;5110757;28;20497;-88
2022/06/18 03:04:24;;;;;;;9.68;5.05;;;18.30;99.90;;;;;;5095322;28;20051;-88
2022/06/18 03:07:05;;;;;;;8.77;4.70;;;18.50;99.90;;;;;;5088230;28;20047;-92
2022/06/18 03:12:06;;;;;;;11.18;4.85;;;18.50;99.90;;;;;;5074114;28;20054;-89
2022/06/18 03:12:57;;;;;;;15.50;5.90;;;18.40;99.90;;;;;;5105026;28;20043;-89
2022/06/18 03:15:40;;;;;;;9.57;5.00;;;18.70;99.90;;;;;;5124171;27;20048;-89
2022/06/18 03:18:18;;;;;;;9.00;4.57;;;19.00;99.90;;;;;;5089760;28;20054;-90
2022/06/18 03:21:30;;;;;;;12.25;4.85;;;18.50;99.90;;;;;;5091239;28;20544;-89
2022/06/18 03:23:58;;;;;;;11.73;4.78;;;18.40;99.90;;;;;;5091896;28;20096;-89
2022/06/18 03:26:35;;;;;;;9.95;4.93;;;18.50;99.90;;;;;;5091602;28;20072;-89
2022/06/18 03:29:11;;;;;;;8.85;4.50;;;18.20;99.90;;;;;;5086857;28;20043;-89
2022/06/18 03:31:40;;;;;;;8.20;4.18;;;18.40;99.90;;;;;;5073316;28;20071;-89
2022/06/18 03:34:13;;;;;;;10.35;3.95;;;18.40;99.90;;;;;;5090386;28;20052;-89
2022/06/18 03:36:45;;;;;;;10.35;4.25;;;18.40;99.90;;;;;;5069950;28;20060;-89
2022/06/18 03:39:32;;;;;;;8.48;3.90;;;18.00;99.90;;;;;;5084261;28;20044;-88
2022/06/18 03:42:09;;;;;;;9.70;4.20;;;18.40;99.90;;;;;;5121014;28;20140;-90
2022/06/18 03:44:38;;;;;;;9.52;4.40;;;18.40;99.90;;;;;;5072679;28;20055;-88
2022/06/18 03:47:11;;;;;;;10.40;3.90;;;18.50;99.90;;;;;;5073178;28;20047;-90
2022/06/18 03:52:30;;;;;;;9.07;3.90;;;18.40;99.90;;;;;;5079324;28;20508;-90
2022/06/18 03:54:59;;;;;;;5.65;3.85;;;18.50;99.90;;;;;;5105661;28;20055;-90
2022/06/18 03:57:37;;;;;;;10.02;4.57;;;18.50;99.90;;;;;;5090180;28;20083;-89
2022/06/18 04:00:14;;;;;;;7.32;3.92;;;18.60;99.90;;;;;;5074785;28;20047;-89
2022/06/18 04:02:40;;;;;;;12.90;3.92;;;18.60;99.90;;;;;;5094931;28;20497;-89
2022/06/18 04:05:10;;;;;;;11.02;3.88;;;18.60;99.90;;;;;;5095223;28;20117;-89
2022/06/18 04:07:57;;;;;;;7.25;3.80;;;18.60;99.90;;;;;;5091783;28;20131;-89
2022/06/18 04:13:24;;;;;;;10.32;3.90;;;18.60;99.90;;;;;;5076480;28;20048;-90
2022/06/18 04:16:06;;;;;;;;;;;;;;;;;;;;;
2022/06/18 04:18:36;;;;;;;7.68;3.63;;;18.70;99.90;;;;;;5116129;28;20054;-88
2022/06/18 04:21:03;;;;;;;8.30;3.72;;;18.70;99.90;;;;;;5094849;28;20043;-88
2022/06/18 04:23:35;;;;;;;7.03;3.10;;;18.70;99.90;;;;;;5091081;28;20054;-88
2022/06/18 04:26:13;;;;;;;7.15;3.58;;;18.70;99.90;;;;;;5089834;28;20048;-89
2022/06/18 04:28:50;;;;;;;7.82;3.38;;;18.80;99.90;;;;;;5096396;28;20400;-90
2022/06/18 04:31:26;;;;;;;;;;;;;;;;;;;;;
2022/06/18 04:33:58;;;;;;;8.85;2.78;;;18.90;99.90;;;;;;5109243;28;20036;-88
2022/06/18 04:36:39;;;;;;;5.82;2.92;;;18.90;99.90;;;;;;5090147;28;20048;-90
2022/06/18 04:39:07;;;;;;;7.05;2.83;;;18.90;99.90;;;;;;5107474;28;20113;-90
2022/06/18 04:41:49;;;;;;;;;;;;;;;;;;;;;
2022/06/18 04:44:19;;;;;;;7.28;2.83;;;19.00;99.90;;;;;;5096277;28;20108;-89
2022/06/18 04:46:45;;;;;;;4.05;2.38;;;19.10;99.90;;;;;;5075484;28;20055;-88
2022/06/18 04:49:17;;;;;;;6.93;2.60;;;19.10;99.90;;;;;;5091224;28;20047;-89
2022/06/18 04:51:55;;;;;;;7.28;2.83;;;19.10;99.90;;;;;;5082769;28;20079;-88
2022/06/18 04:54:24;;;;;;;8.23;3.60;;;19.50;99.90;;;;;;5099218;28;20051;-89
2022/06/18 04:56:54;;;;;;;7.78;3.20;;;19.40;99.90;;;;;;5101313;28;20262;-90
2022/06/18 04:59:22;;;;;;;4.78;3.10;;;19.10;99.90;;;;;;5100358;28;20047;-89
2022/06/18 05:02:13;;;;;;;6.15;3.15;;;19.10;99.90;;;;;;5107662;28;20047;-88
2022/06/18 05:04:41;;;;;;;7.25;3.30;;;19.10;99.90;;;;;;5095621;28;20052;-89
2022/06/18 05:07:19;;;;;;;6.60;2.70;;;19.20;99.90;;;;;;5086890;28;20047;-90
2022/06/18 05:10:16;;;;;;;5.10;2.88;;;19.10;99.90;;;;;;5097314;28;20047;-91
2022/06/18 05:13:06;;;;;;;;;;;;;;;;;;;;;
2022/06/18 05:15:42;;;;;;;8.90;3.42;;;19.20;99.90;;;;;;5099559;28;20040;-90
2022/06/18 05:18:29;;;;;;;;;;;;;;;;;;;;;
2022/06/18 05:20:57;;;;;;;6.82;2.90;;;19.10;99.90;;;;;;5096263;28;20047;-91
2022/06/18 05:23:23;;;;;;;4.60;2.58;;;19.10;99.90;;;;;;5094089;28;20061;-89
2022/06/18 05:26:23;;;;;;;;;;;;;;;;;;;;;
2022/06/18 05:29:17;;;;;;;4.05;1.80;;;19.20;99.90;;;;;;5106261;28;20040;-89
2022/06/18 05:32:05;;;;;;;;;;;;;;;;;;;;;
2022/06/18 05:34:41;;;;;;;4.93;1.70;;;19.20;99.90;;;;;;5094179;28;20389;-90
2022/06/18 05:37:20;;;;;;;4.93;1.70;;;19.30;99.90;;;;;;5073306;28;20400;-91
2022/06/18 05:39:57;;;;;;;3.28;1.70;;;19.40;99.90;;;;;;5090960;28;20054;-90
2022/06/18 05:42:38;;;;;;;;;;;;;;;;;;;;;
2022/06/18 05:45:15;;;;;;;4.15;1.50;;;19.40;99.90;;;;;;5094447;28;20050;-91
2022/06/18 05:47:53;;;;;;;3.65;1.60;;;19.40;99.90;;;;;;5080313;28;20042;-90
2022/06/18 05:50:21;;;;;;;3.55;1.70;;;19.50;99.90;;;;;;5104582;28;20071;-89
2022/06/18 05:53:08;;;;;;;3.00;1.40;;;19.60;99.90;;;;;;5100242;28;20046;-90
2022/06/18 05:55:58;;;;;;;4.28;1.60;;;19.20;99.90;;;;;;5094457;28;20050;-89
2022/06/18 05:58:59;;;;;;;2.95;1.60;;;19.70;99.90;;;;;;5108539;28;20115;-89
2022/06/18 06:08:30;;;;;;;7.25;2.00;;;19.80;99.90;;;;;;5109220;28;20548;-90
2022/06/18 06:14:15;;;;;;;;;;;;;;;;;;;;;
2022/06/18 06:17:01;;;;;;;4.03;1.63;;;20.40;99.90;;;;;;5109351;28;20058;-90
2022/06/18 06:19:42;;;;;;;5.50;1.60;;;20.40;99.90;;;;;;5079743;28;20043;-89
2022/06/18 06:22:36;;;;;;;6.88;1.58;;;20.40;99.90;;;;;;5087255;28;20048;-90
2022/06/18 06:25:16;;;;;;;5.35;1.48;;;20.30;99.90;;;;;;5086751;28;20490;-88
2022/06/18 06:27:46;;;;;;;5.10;1.60;;;20.60;99.90;;;;;;5090418;28;20468;-88
2022/06/18 06:30:21;;;;;;;5.63;1.92;;;20.60;99.90;;;;;;5088213;28;20075;-89
2022/06/18 06:33:05;;;;;;;;;;;;;;;;;;;;;
2022/06/18 06:35:35;;;;;;;7.25;1.50;;;20.60;99.90;;;;;;5118678;28;20043;-89
2022/06/18 06:38:02;;;;;;;3.10;1.40;;;20.70;99.90;;;;;;5108700;28;20068;-88
2022/06/18 06:40:37;;;;;;;3.78;1.60;;;20.70;99.90;;;;;;5104963;28;20292;-89
2022/06/18 06:43:21;;;;;;;2.80;1.55;;;20.80;99.90;;;;;;5106529;28;20108;-89
2022/06/18 06:46:00;;;;;;;4.25;1.55;;;20.90;99.90;;;;;;5097242;28;20056;-89
2022/06/18 06:48:36;;;;;;;5.10;1.80;;;21.00;99.90;;;;;;5084987;27;20060;-89
2022/06/18 06:51:13;;;;;;;2.65;1.50;;;21.10;99.90;;;;;;5112121;27;20697;-89
2022/06/18 06:53:42;;;;;;;2.53;1.20;;;21.20;99.90;;;;;;5094310;27;20047;-89
2022/06/18 06:59:09;;;;;;;4.05;1.40;;;21.30;99.90;;;;;;5113450;27;20043;-89
2022/06/18 07:01:38;;;;;;;4.40;1.40;;;21.10;99.90;;;;;;5112956;27;20113;-89
2022/06/18 07:04:09;;;;;;;4.10;1.90;;;21.50;99.90;;;;;;5114665;27;20135;-89
2022/06/18 07:06:38;;;;;;;4.13;1.20;;;21.30;99.90;;;;;;5087573;27;20043;-89
2022/06/18 07:09:10;;;;;;;3.10;1.48;;;21.50;99.90;;;;;;5091712;27;20040;-89
2022/06/18 07:11:47;;;;;;;3.65;1.27;;;21.50;99.90;;;;;;5094829;28;20118;-90
2022/06/18 07:14:13;;;;;;;5.25;1.35;;;21.50;99.90;;;;;;5094798;27;20510;-89
2022/06/18 07:17:37;;;;;;;4.78;1.55;;;21.60;99.90;;;;;;5092831;27;20046;-89
2022/06/18 07:20:14;;;;;;;4.07;1.48;;;21.70;99.90;;;;;;5093782;27;20062;-89
2022/06/18 07:22:43;;;;;;;3.60;1.30;;;21.80;99.90;;;;;;5092645;27;20047;-88
2022/06/18 07:25:19;;;;;;;2.83;1.20;;;22.00;99.90;;;;;;5112762;28;20388;-88
2022/06/18 07:27:56;;;;;;;2.67;1.10;;;22.10;99.90;;;;;;5093442;27;20496;-88
2022/06/18 07:30:25;;;;;;;4.75;1.60;;;22.20;99.90;;;;;;5073933;27;20051;-89
2022/06/18 07:33:08;;;;;;;4.03;1.27;;;22.00;99.90;;;;;;5095021;27;20068;-89
2022/06/18 07:35:35;;;;;;;3.30;1.40;;;22.30;99.90;;;;;;5078359;27;20480;-88
2022/06/18 07:38:07;;;;;;;3.60;1.80;;;22.30;99.90;;;;;;5093918;28;20047;-89
2022/06/18 07:41:14;;;;;;;;;;;;;;;;;;;;;
2022/06/18 07:44:06;;;;;;;2.97;1.35;;;22.30;99.90;;;;;;5112215;28;20488;-88
2022/06/18 07:46:38;;;;;;;5.13;1.52;;;22.40;99.90;;;;;;5109339;28;20130;-90
2022/06/18 07:49:07;;;;;;;6.60;2.20;;;22.50;99.90;;;;;;5093896;28;20047;-89
2022/06/18 07:51:39;;;;;;;5.07;1.52;;;22.60;99.90;;;;;;5097406;28;20237;-89
2022/06/18 07:54:21;;;;;;;2.60;1.30;;;22.70;99.90;;;;;;5136697;28;20057;-90
2022/06/18 07:56:57;;;;;;;2.47;1.35;;;22.70;99.90;;;;;;5097821;28;20470;-89
2022/06/18 07:59:40;;;;;;;;;;;;;;;;;;;;;
2022/06/18 08:02:12;;;;;;;2.92;1.10;;;23.30;99.90;;;;;;5109163;28;20162;-90
2022/06/18 08:04:48;;;;;;;2.72;0.80;;;23.60;99.90;;;;;;5111168;28;20039;-88
2022/06/18 08:07:58;;;;;;;;;;;;;;;;;;;;;
2022/06/18 08:13:55;;;;;;;2.55;0.98;;;23.80;99.90;;;;;;5104702;28;20096;-90
2022/06/18 08:16:37;;;;;;;;;;;;;;;;;;;;;
2022/06/18 08:19:06;;;;;;;2.05;0.90;;;24.70;99.90;;;;;;5123611;28;20058;-89
2022/06/18 08:21:55;;;;;;;;;;;;;;;;;;;;;
2022/06/18 08:25:06;;;;;;;4.45;1.70;;;24.40;99.90;;;;;;5107726;28;20055;-87
2022/06/18 08:27:22;;;;;;;2.58;1.00;;;24.40;99.90;;;;;;5100776;28;20573;-86
2022/06/18 08:29:53;;;;;;;2.00;0.90;;;24.40;99.90;;;;;;5097255;28;20080;-89
2022/06/18 08:32:24;;;;;;;4.95;1.65;;;24.40;99.90;;;;;;5095270;28;20044;-90
2022/06/18 08:35:07;;;;;;;2.88;1.25;;;24.30;99.90;;;;;;5106887;28;20086;-89
2022/06/18 08:37:43;;;;;;;2.92;1.40;;;23.70;99.90;;;;;;5086481;28;20134;-89
2022/06/18 08:40:51;;;;;;;3.83;1.38;;;24.10;99.90;;;;;;5112191;28;20451;-90
2022/06/18 08:43:44;;;;;;;2.20;0.90;;;23.90;99.90;;;;;;5067069;28;20063;-89
2022/06/18 08:46:52;;;;;;;5.00;1.10;;;23.80;99.90;;;;;;5093053;27;20047;-90
2022/06/18 08:49:48;;;;;;;3.75;1.00;;;23.80;99.90;;;;;;5104354;28;20118;-91
2022/06/18 08:52:31;;;;;;;;;;;;;;;;;;;;;
2022/06/18 08:55:05;;;;;;;5.03;1.30;;;23.40;99.90;;;;;;5121552;28;20052;-89
2022/06/18 08:58:11;;;;;;;4.55;1.05;;;24.10;99.90;;;;;;5118585;28;20032;-90
2022/06/18 09:00:50;;;;;;;4.25;1.38;;;24.50;99.90;;;;;;5097493;28;20449;-90
2022/06/18 09:03:58;;;;;;;3.25;1.08;;;24.80;99.90;;;;;;5112312;28;20043;-89
2022/06/18 09:06:54;;;;;;;3.80;1.10;;;25.10;99.90;;;;;;5087413;28;20063;-90
2022/06/18 09:13:12;;;;;;;3.05;0.90;;;25.50;99.90;;;;;;5098278;27;20081;-89
2022/06/18 09:15:49;;;;;;;;;;;25.60;99.90;;;;;;5092935;28;20162;-89
2022/06/18 09:18:42;;;;;;;3.83;0.95;;;25.70;99.90;;;;;;5107057;28;19919;-90
2022/06/18 09:21:18;;;;;;;3.65;0.93;;;26.00;99.90;;;;;;5089929;28;20130;-90
2022/06/18 09:24:03;;;;;;;3.55;0.90;;;26.20;99.90;;;;;;5078761;28;20047;-90
2022/06/18 09:26:44;;;;;;;4.03;0.77;;;26.40;99.90;;;;;;5090337;28;20073;-89
2022/06/18 09:29:57;;;;;;;;;;;;;;;;;;;;;
2022/06/18 09:32:45;;;;;;;;;;;;;;;;;;;;;
2022/06/18 09:35:36;;;;;;;2.65;0.90;;;27.00;99.90;;;;;;5110178;28;20047;-89
2022/06/18 09:38:51;;;;;;;2.40;0.65;;;27.00;99.90;;;;;;5091445;28;20389;-89
2022/06/18 09:41:28;;;;;;;2.30;1.00;;;26.80;99.90;;;;;;5071328;28;20059;-90
2022/06/18 09:44:38;;;;;;;3.15;0.80;;;26.90;99.90;;;;;;5090035;28;20044;-89
2022/06/18 09:47:46;;;;;;;;;;;;;;;;;;;;;
2022/06/18 09:50:48;;;;;;;;;;;;;;;;;;;;;
2022/06/18 09:57:35;;;;;;;1.67;0.70;;;27.70;99.80;;;;;;5097850;28;20065;-91
2022/06/18 10:00:23;;;;;;;;;;;;;;;;;;;;;
2022/06/18 10:08:53;;;;;;;2.83;0.90;;;28.30;97.30;;;;;;5109219;28;20047;-88
2022/06/18 10:11:32;;;;;;;5.68;1.30;;;28.40;96.90;;;;;;5090865;28;20043;-87
2022/06/18 10:14:04;;;;;;;2.72;0.82;;;28.40;96.30;;;;;;5086550;28;20776;-89
2022/06/18 10:17:03;;;;;;;;;;;;;;;;;;;;;
2022/06/18 10:19:51;;;;;;;2.72;0.80;;;28.50;95.30;;;;;;5109090;28;20052;-87
2022/06/18 10:22:35;;;;;;;;;;;;;;;;;;;;;
2022/06/18 10:25:53;;;;;;;;;;;;;;;;;;;;;
2022/06/18 10:29:07;;;;;;;2.72;0.82;;;28.80;94.00;;;;;;5103330;28;20051;-88
2022/06/18 10:32:08;;;;;;;2.63;0.80;;;29.10;92.90;;;;;;5105499;28;20036;-87
2022/06/18 10:35:41;;;;;;;;;;;;;;;;;;;;;
2022/06/18 10:38:45;;;;;;;2.53;1.10;;;29.20;91.70;;;;;;5108338;28;20082;-88
2022/06/18 10:41:35;;;;;;;1.80;0.75;;;29.40;91.10;;;;;;5091405;28;20152;-87
2022/06/18 10:44:35;;;;;;;3.50;1.02;;;29.40;91.10;;;;;;5107078;28;20378;-87
2022/06/18 10:47:13;;;;;;;3.30;0.90;;;29.40;89.40;;;;;;5031873;28;20056;-86
2022/06/18 10:50:02;;;;;;;3.25;0.93;;;29.30;89.90;;;;;;5086947;28;20087;-87
2022/06/18 10:53:07;;;;;;;4.03;1.13;;;29.00;89.10;;;;;;5106095;28;20103;-88
2022/06/18 10:55:38;;;;;;;4.82;1.27;;;28.90;86.90;;;;;;5109031;28;20071;-87
2022/06/18 10:58:18;;;;;;;4.38;1.08;;;29.10;89.50;;;;;;5090245;28;20079;-86
2022/06/18 11:01:12;;;;;;;2.63;0.95;;;29.40;87.40;;;;;;5105397;28;20174;-87
2022/06/18 11:03:38;;;;;;;4.80;1.35;;;29.40;84.30;;;;;;5106609;28;20040;-88
2022/06/18 11:06:16;;;;;;;4.20;1.20;;;29.40;86.50;;;;;;5091092;28;20131;-88
2022/06/18 11:08:57;;;;;;;3.28;0.98;;;29.30;85.40;;;;;;5106690;28;20493;-87
2022/06/18 11:11:34;;;;;;;3.95;0.88;;;28.80;85.20;;;;;;5106967;28;20055;-87
2022/06/18 11:14:23;;;;;;;4.65;1.10;;;28.80;86.40;;;;;;5085998;28;20051;-88
2022/06/18 11:16:57;;;;;;;3.92;1.30;;;29.00;86.50;;;;;;5087595;28;20062;-88
2022/06/18 11:19:34;;;;;;;4.57;1.35;;;29.20;86.70;;;;;;5089942;28;20043;-89
2022/06/18 11:22:21;;;;;;;4.93;1.30;;;29.10;84.70;;;;;;5085850;28;20139;-88
2022/06/18 11:25:12;;;;;;;;;;;;;;;;;;;;;
2022/06/18 11:27:47;;;;;;;2.83;0.95;;;29.00;85.40;;;;;;5108769;28;20108;-89
2022/06/18 11:30:41;;;;;;;3.45;1.02;;;29.20;86.10;;;;;;5090653;28;20040;-87
2022/06/18 11:33:43;;;;;;;;;;;;;;;;;;;;;
2022/06/18 11:36:21;;;;;;;5.18;1.20;;;29.30;84.50;;;;;;5101872;28;20056;-89
2022/06/18 11:39:02;;;;;;;4.05;1.00;;;29.30;84.30;;;;;;5120749;28;20051;-88
2022/06/18 11:41:43;;;;;;;2.63;0.90;;;29.60;84.30;;;;;;5100300;28;20066;-89
2022/06/18 11:44:41;;;;;;;4.38;1.40;;;29.50;83.90;;;;;;5096331;28;20051;-87
2022/06/18 11:47:40;;;;;;;4.32;1.23;;;29.60;83.90;;;;;;5098428;28;20048;-90
2022/06/18 11:50:31;;;;;;;3.95;1.10;;;29.80;82.60;;;;;;5120278;28;20047;-89
2022/06/18 11:53:14;;;;;;;6.03;1.27;;;30.00;83.80;;;;;;5091027;28;20060;-88
2022/06/18 11:55:48;;;;;;;5.68;1.08;;;29.70;83.60;;;;;;5090532;28;20060;-88
2022/06/18 11:58:20;;;;;;;5.03;1.50;;;29.70;83.60;;;;;;5090782;28;20048;-89
2022/06/18 12:01:15;;;;;;;4.18;1.30;;;29.40;84.00;;;;;;5089892;28;20096;-88
2022/06/18 12:03:51;;;;;;;5.78;1.70;;;29.20;83.30;;;;;;5092060;28;20100;-88
2022/06/18 12:06:56;;;;;;;5.38;1.50;;;29.10;83.50;;;;;;5089072;28;20048;-88
2022/06/18 12:09:41;;;;;;;5.90;1.50;;;29.10;82.90;;;;;;5107911;28;20044;-89
2022/06/18 12:12:10;;;;;;;;;;;29.00;82.90;;;;;;5105004;28;20141;-89
2022/06/18 12:15:15;;;;;;;5.80;1.50;;;29.10;82.50;;;;;;5105480;28;19924;-90
2022/06/18 12:18:21;;;;;;;6.40;1.27;;;28.80;83.10;;;;;;5091036;28;20047;-90
2022/06/18 12:21:36;;;;;;;;;;;;;;;;;;;;;
2022/06/18 12:27:39;;;;;;;;;;;;;;;;;;;;;
2022/06/18 12:33:53;;;;;;;4.93;1.60;;;28.90;80.90;;;;;;5108899;28;20048;-88
2022/06/18 12:37:02;;;;;;;5.32;1.60;;;29.10;79.00;;;;;;5100859;28;20135;-90
2022/06/18 12:39:56;;;;;;;4.07;1.23;;;29.00;79.40;;;;;;5119349;28;20077;-89
2022/06/18 12:42:52;;;;;;;;;;;;;;;;;;;;;
2022/06/18 12:45:56;;;;;;;6.32;1.80;;;28.70;80.70;;;;;;5113958;28;20043;-89
2022/06/18 12:49:02;;;;;;;;;;;;;;;;;;;;;
2022/06/18 12:52:02;;;;;;;;;;;;;;;;;;;;;
2022/06/18 12:55:18;;;;;;;5.30;1.40;;;29.10;75.20;;;;;;5117643;27;20508;-88
2022/06/18 12:58:16;;;;;;;;;;;;;;;;;;;;;
2022/06/18 13:00:53;;;;;;;4.22;1.42;;;29.40;78.60;;;;;;5116123;27;20047;-89
2022/06/18 13:04:02;;;;;;;6.03;1.60;;;29.40;77.70;;;;;;5098841;27;20050;-90
2022/06/18 13:10:29;;;;;;;;;;;;;;;;;;;;;
2022/06/18 13:17:42;;;;;;;;;;;;;;;;;;;;;
2022/06/18 13:35:01;;;;;;;5.13;1.70;;;26.80;82.90;;;;;;5035989;28;20061;-88
2022/06/18 13:38:17;;;;;;;;;;;;;;;;;;;;;
2022/06/18 13:44:50;;;;;;;5.75;1.70;;;26.70;82.90;;;;;;5052032;28;20057;-89
2022/06/18 13:47:39;;;;;;;5.75;1.52;;;26.80;83.60;;;;;;5040251;28;20068;-87
2022/06/18 13:50:44;;;;;;;;;;;;;;;;;;;;;
2022/06/18 13:53:43;;;;;;;7.10;1.60;;;26.70;84.00;;;;;;5095017;27;20055;-89
2022/06/18 13:56:53;;;;;;;5.30;1.60;;;26.50;82.10;;;;;;5090958;27;20047;-89
2022/06/18 13:59:33;;;;;;;;;;;;;;;;;;;;;
2022/06/18 14:02:47;;;;;;;6.32;1.55;;;27.10;83.00;;;;;;5099374;27;20043;-89
2022/06/18 14:05:47;;;;;;;6.65;1.80;;;27.30;81.00;;;;;;5018037;28;20056;-88
2022/06/18 14:08:50;;;;;;;3.97;1.35;;;27.20;81.50;;;;;;5015284;28;20043;-89
2022/06/18 14:11:54;;;;;;;;;;;;;;;;;;;;;
2022/06/18 14:14:44;;;;;;;6.00;1.67;;;27.20;80.80;;;;;;5112032;27;20055;-90
2022/06/18 14:17:59;;;;;;;;;;;;;;;;;;;;;
2022/06/18 14:20:43;;;;;;;5.43;1.70;;;27.20;80.30;;;;;;5111332;27;20125;-89
2022/06/18 14:23:52;;;;;;;;;;;;;;;;;;;;;
2022/06/18 14:26:41;;;;;;;5.35;1.83;;;27.00;82.20;;;;;;5113407;27;20122;-88
2022/06/18 14:29:28;;;;;;;5.25;1.90;;;27.20;82.80;;;;;;5107050;27;20035;-89
2022/06/18 14:32:44;;;;;;;6.22;1.80;;;27.00;82.40;;;;;;5094964;27;20047;-89
2022/06/18 14:35:19;;;;;;;6.87;1.70;;;27.00;83.10;;;;;;5067326;28;20193;-89
2022/06/18 14:38:07;;;;;;;;;;;27.00;82.70;;;;;;5115995;27;20050;-88
2022/06/18 14:44:05;;;;;;;6.55;1.55;;;27.70;83.70;;;;;;5124519;27;20047;-91
2022/06/18 14:50:02;;;;;;;9.23;2.25;;;27.90;82.70;;;;;;5079736;28;20048;-89
2022/06/18 14:53:18;;;;;;;8.13;1.73;;;27.60;82.20;;;;;;5112843;28;20052;-89
2022/06/18 14:56:30;;;;;;;7.55;1.80;;;27.80;83.40;;;;;;5083734;28;20190;-91
2022/06/18 14:59:45;;;;;;;4.60;1.27;;;27.50;82.60;;;;;;5099853;28;20069;-89
2022/06/18 15:02:40;;;;;;;8.00;1.75;;;27.30;84.70;;;;;;5099045;28;20040;-88
2022/06/18 15:05:38;;;;;;;;;;;;;;;;;;;;;
2022/06/18 15:08:40;;;;;;;6.60;1.95;;;26.60;84.50;;;;;;5115262;28;20508;-88
2022/06/18 15:11:30;;;;;;;;;;;;;;;;;;;;;
2022/06/18 15:14:30;;;;;;;7.32;2.03;;;25.10;88.20;;;;;;5098927;28;20168;-88
2022/06/18 15:20:41;;;;;;;;;;;;;;;;;;;;;
2022/06/18 15:26:26;;;;;;;7.50;2.40;;;23.60;94.10;;;;;;5082135;28;20048;-88
2022/06/18 15:29:11;;;;;;;;;;;;;;;;;;;;;
2022/06/18 15:32:08;;;;;;;5.68;1.83;;;23.20;96.00;;;;;;5104802;28;20407;-88
2022/06/18 15:34:53;;;;;;;8.18;2.20;;;23.60;96.40;;;;;;5102591;28;20381;-90
2022/06/18 15:37:56;;;;;;;7.85;2.00;;;23.50;96.40;;;;;;5089780;28;20051;-89
2022/06/18 15:40:43;;;;;;;7.28;1.83;;;23.50;96.40;;;;;;5085039;28;20044;-89
2022/06/18 15:43:59;;;;;;;10.15;1.90;;;23.10;96.30;;;;;;5092436;28;20500;-90
2022/06/18 15:46:29;;;;;;;7.57;1.85;;;23.40;94.70;;;;;;5056506;28;20047;-88
2022/06/18 15:49:25;;;;;;;4.93;1.85;;;23.20;94.90;;;;;;5111067;28;20112;-89
2022/06/18 15:52:09;;;;;;;8.52;1.90;;;23.10;95.50;;;;;;5111255;28;20052;-89
2022/06/18 15:58:17;;;;;;;7.55;1.83;;;23.00;94.80;;;;;;5112065;28;20079;-89
2022/06/18 16:08:15;;;;;;;5.13;1.60;;;22.60;95.20;;;;;;5106714;28;20058;-90
2022/06/18 16:10:53;;;;;;;7.85;1.75;;;22.70;95.70;;;;;;5098319;28;20072;-90
2022/06/18 16:13:48;;;;;;;7.50;2.22;;;22.70;95.00;;;;;;5101051;28;20070;-90
2022/06/18 16:16:45;;;;;;;;;;;;;;;;;;;;;
2022/06/18 16:19:29;;;;;;;;;;;;;;;;;;;;;
2022/06/18 16:21:59;;;;;;;7.22;2.15;;;22.60;95.80;;;;;;5109195;28;20079;-88
2022/06/18 16:25:09;;;;;;;8.88;2.00;;;22.40;96.30;;;;;;5109034;28;20817;-90
2022/06/18 16:27:40;;;;;;;7.20;1.98;;;22.40;95.70;;;;;;5125280;28;20044;-90
2022/06/18 16:30:32;;;;;;;7.40;1.98;;;22.40;95.70;;;;;;5098110;28;20052;-90
2022/06/18 16:33:29;;;;;;;9.55;1.85;;;22.50;96.20;;;;;;5103474;28;20059;-90
2022/06/18 16:36:04;;;;;;;8.25;2.00;;;23.00;94.80;;;;;;5115676;28;20043;-89
2022/06/18 16:38:55;;;;;;;;;;;;;;;;;;;;;
2022/06/18 16:42:07;;;;;;;7.13;1.85;;;22.40;95.30;;;;;;5111450;28;20060;-90
2022/06/18 16:44:43;;;;;;;5.72;1.60;;;22.30;93.40;;;;;;5092383;28;20412;-90
2022/06/18 16:47:17;;;;;;;7.43;1.95;;;22.40;93.70;;;;;;5082671;28;20073;-89
2022/06/18 16:50:39;;;;;;;9.38;2.35;;;22.10;93.80;;;;;;5082562;28;20055;-89
2022/06/18 16:53:52;;;;;;;8.57;1.73;;;22.00;93.90;;;;;;5094053;28;20060;-90
2022/06/18 16:56:54;;;;;;;;;;;;;;;;;;;;;
2022/06/18 16:59:39;;;;;;;8.20;2.03;;;21.10;93.10;;;;;;5116559;28;20081;-89
2022/06/18 17:02:18;;;;;;;6.80;1.73;;;21.40;94.10;;;;;;5098729;28;20060;-89
2022/06/18 17:07:59;;;;;;;4.78;1.30;;;20.60;93.50;;;;;;5094362;28;20131;-89
2022/06/18 17:10:36;;;;;;;6.85;1.55;;;21.30;90.80;;;;;;5115829;28;20043;-88
2022/06/18 17:13:08;;;;;;;4.78;1.63;;;21.00;92.70;;;;;;5098262;28;20043;-89
2022/06/18 17:19:24;;;;;;;;;;;;;;;;;;;;;
2022/06/18 17:22:00;;;;;;;4.35;1.33;;;21.00;93.00;;;;;;5093083;28;20078;-89
2022/06/18 17:33:56;;;;;;;5.03;1.45;;;20.60;92.90;;;;;;5122020;28;20115;-88
2022/06/18 17:36:33;;;;;;;5.82;1.60;;;20.50;93.00;;;;;;5105740;28;20108;-88
2022/06/18 17:39:16;;;;;;;6.55;1.48;;;20.30;93.50;;;;;;5103242;28;20044;-87
2022/06/18 17:42:24;;;;;;;;;;;;;;;;;;;;;
2022/06/18 17:45:06;;;;;;;;;;;;;;;;;;;;;